Time;durP1;ratioP1;P1;durP2;ratioP2;P2;SDS_P1;SDS_P2;PMS_P1;PMS_P2;Temp;Humidity;BMP_temperature;BMP_pressure;BME280_temperature;BME280_humidity;BME280_pressure;Samples;Min_cycle;Max_cycle;Signal;HPM_P1;HPM_P2
2022/11/29 00:00:32;;;;;;;298.70;24.90;;;9.00;99.90;;;;;;5019446;28;20404;-87
2022/11/29 00:02:58;;;;;;;469.60;32.88;;;9.00;99.90;;;;;;5049947;28;20087;-87
2022/11/29 00:05:24;;;;;;;392.42;28.88;;;9.00;99.90;;;;;;5019922;28;20044;-88
2022/11/29 00:07:49;;;;;;;262.23;22.52;;;8.90;99.90;;;;;;5041698;28;20032;-86
2022/11/29 00:10:15;;;;;;;322.45;25.40;;;8.90;99.90;;;;;;5049403;28;20044;-87
2022/11/29 00:12:41;;;;;;;264.38;24.83;;;8.90;99.90;;;;;;5027198;28;20284;-87
2022/11/29 00:15:07;;;;;;;337.88;25.73;;;8.90;99.90;;;;;;5066726;28;20048;-87
2022/11/29 00:17:32;;;;;;;324.17;25.40;;;8.90;99.90;;;;;;5019199;28;20484;-88
2022/11/29 00:19:58;;;;;;;239.20;22.58;;;9.00;99.90;;;;;;5031650;28;20151;-88
2022/11/29 00:22:24;;;;;;;219.75;22.60;;;8.90;99.90;;;;;;5033453;28;20044;-86
2022/11/29 00:24:52;;;;;;;198.45;21.17;;;8.90;99.90;;;;;;5018498;28;20369;-87
2022/11/29 00:27:18;;;;;;;239.52;24.73;;;8.90;99.90;;;;;;5017494;28;20049;-86
2022/11/29 00:29:43;;;;;;;207.77;22.55;;;8.90;99.90;;;;;;5033175;28;20045;-86
2022/11/29 00:32:09;;;;;;;223.30;22.50;;;8.90;99.90;;;;;;5018434;28;20051;-87
2022/11/29 00:34:36;;;;;;;225.50;23.83;;;8.90;99.90;;;;;;5019053;28;20040;-88
2022/11/29 00:37:04;;;;;;;237.38;23.15;;;8.90;99.90;;;;;;5021951;28;20052;-87
2022/11/29 00:39:30;;;;;;;283.92;23.70;;;8.90;99.90;;;;;;5053378;28;20048;-87
2022/11/29 00:41:56;;;;;;;256.70;25.42;;;9.00;99.90;;;;;;5039208;28;20037;-87
2022/11/29 00:44:21;;;;;;;262.20;27.58;;;8.90;99.90;;;;;;5027095;28;20531;-87
2022/11/29 00:46:47;;;;;;;274.85;24.38;;;8.90;99.90;;;;;;5037948;28;20488;-86
2022/11/29 00:49:13;;;;;;;314.20;26.90;;;9.00;99.90;;;;;;5021053;28;20045;-87
2022/11/29 00:51:39;;;;;;;228.10;22.90;;;8.90;99.90;;;;;;5039007;28;20252;-87
2022/11/29 00:54:04;;;;;;;255.85;24.02;;;8.90;99.90;;;;;;5040936;28;20139;-87
2022/11/29 00:56:30;;;;;;;186.43;24.20;;;8.90;99.90;;;;;;5021511;28;20033;-87
2022/11/29 00:58:56;;;;;;;203.05;23.60;;;8.90;99.90;;;;;;5022238;28;20048;-87
2022/11/29 01:01:25;;;;;;;155.27;21.55;;;8.90;99.90;;;;;;5067949;28;20411;-87
2022/11/29 01:03:50;;;;;;;223.40;25.42;;;8.90;99.90;;;;;;5026372;28;20070;-87
2022/11/29 01:06:17;;;;;;;181.90;23.95;;;8.90;99.90;;;;;;5023143;28;20037;-87
2022/11/29 01:08:44;;;;;;;265.42;26.38;;;8.90;99.90;;;;;;5051766;28;20138;-86
2022/11/29 01:11:15;;;;;;;254.18;25.85;;;8.90;99.90;;;;;;5021485;28;20045;-87
2022/11/29 01:13:41;;;;;;;220.00;23.48;;;8.90;99.90;;;;;;5049524;28;20033;-87
2022/11/29 01:16:07;;;;;;;238.40;24.50;;;8.90;99.90;;;;;;5051972;28;20388;-86
2022/11/29 01:18:34;;;;;;;216.18;24.15;;;8.90;99.90;;;;;;5019471;28;20071;-87
2022/11/29 01:21:06;;;;;;;166.45;22.33;;;8.80;99.90;;;;;;5015408;28;20040;-86
2022/11/29 01:23:33;;;;;;;177.95;22.30;;;8.80;99.90;;;;;;5021918;28;20068;-86
2022/11/29 01:26:01;;;;;;;187.05;22.92;;;8.80;99.90;;;;;;5020041;28;20771;-87
2022/11/29 01:28:27;;;;;;;182.27;23.45;;;8.80;99.90;;;;;;5049988;28;20440;-88
2022/11/29 01:30:53;;;;;;;214.20;23.27;;;8.80;99.90;;;;;;5021180;28;20558;-87
2022/11/29 01:33:19;;;;;;;221.02;24.27;;;8.80;99.90;;;;;;5052290;28;20394;-88
2022/11/29 01:35:53;;;;;;;192.82;24.23;;;8.80;99.90;;;;;;5037953;28;20611;-86
2022/11/29 01:38:20;;;;;;;157.13;22.95;;;8.80;99.90;;;;;;5019833;28;20032;-87
2022/11/29 01:41:01;;;;;;;174.07;22.65;;;8.80;99.90;;;;;;5036361;28;20423;-87
2022/11/29 01:43:27;;;;;;;183.57;23.13;;;8.80;99.90;;;;;;5026070;28;20480;-87
2022/11/29 01:45:53;;;;;;;175.57;23.30;;;8.80;99.90;;;;;;5034638;28;20485;-87
2022/11/29 01:48:23;;;;;;;170.38;22.00;;;8.80;99.90;;;;;;5020854;28;20067;-86
2022/11/29 01:50:49;;;;;;;188.52;23.35;;;8.80;99.90;;;;;;5036298;28;20044;-87
2022/11/29 01:53:16;;;;;;;151.75;21.58;;;8.80;99.90;;;;;;5022836;28;20060;-87
2022/11/29 01:55:49;;;;;;;188.20;21.90;;;8.80;99.90;;;;;;5020717;28;20049;-87
2022/11/29 01:58:16;;;;;;;154.90;21.98;;;8.80;99.90;;;;;;5052448;28;20054;-87
2022/11/29 02:00:41;;;;;;;233.15;24.90;;;8.80;99.90;;;;;;5036404;28;20528;-87
2022/11/29 02:03:13;;;;;;;146.88;21.58;;;8.80;99.90;;;;;;5040148;28;20040;-87
2022/11/29 02:05:46;;;;;;;132.00;21.30;;;8.80;99.90;;;;;;5023888;28;20068;-87
2022/11/29 02:08:15;;;;;;;161.73;22.85;;;8.80;99.90;;;;;;5023769;28;20050;-87
2022/11/29 02:11:13;;;;;;;191.52;22.95;;;8.80;99.90;;;;;;5050091;28;20145;-87
2022/11/29 02:13:43;;;;;;;132.63;20.10;;;8.80;99.90;;;;;;5066460;28;20048;-87
2022/11/29 02:16:26;;;;;;;139.35;20.73;;;8.70;99.90;;;;;;5049830;28;20048;-87
2022/11/29 02:19:17;;;;;;;123.85;19.25;;;8.80;99.90;;;;;;5033729;28;21033;-87
2022/11/29 02:21:54;;;;;;;169.85;22.25;;;8.70;99.90;;;;;;5048250;28;20125;-87
2022/11/29 02:24:50;;;;;;;127.10;22.50;;;8.80;99.90;;;;;;5035130;28;20100;-87
2022/11/29 02:27:45;;;;;;;118.28;22.63;;;8.70;99.90;;;;;;5050758;28;20044;-87
2022/11/29 02:30:49;;;;;;;141.52;22.70;;;8.80;99.90;;;;;;4986479;28;20468;-86
2022/11/29 02:33:30;;;;;;;127.20;22.10;;;8.80;99.90;;;;;;5018914;28;20071;-86
2022/11/29 02:36:08;;;;;;;166.20;24.95;;;8.80;99.90;;;;;;5050857;28;20052;-87
2022/11/29 02:38:51;;;;;;;131.05;21.85;;;8.70;99.90;;;;;;5015576;28;20415;-87
2022/11/29 02:41:47;;;;;;;147.70;22.48;;;8.70;99.90;;;;;;5049630;28;20788;-86
2022/11/29 02:44:36;;;;;;;;;;;8.60;99.90;;;;;;5045869;28;20037;-87
2022/11/29 02:47:24;;;;;;;175.98;24.85;;;8.70;99.90;;;;;;5021938;28;19936;-86
2022/11/29 02:50:02;;;;;;;126.70;21.63;;;8.70;99.90;;;;;;5049360;28;20751;-87
2022/11/29 02:53:01;;;;;;;151.35;20.88;;;8.70;99.90;;;;;;5049235;28;20127;-87
2022/11/29 02:55:43;;;;;;;132.10;23.08;;;8.60;99.90;;;;;;5032092;28;20291;-86
2022/11/29 02:58:24;;;;;;;198.30;25.05;;;8.60;99.90;;;;;;5050351;28;20473;-86
2022/11/29 03:01:08;;;;;;;156.55;23.85;;;8.60;99.90;;;;;;5035190;28;20574;-87
2022/11/29 03:03:53;;;;;;;162.60;24.42;;;8.60;99.90;;;;;;5049100;28;20082;-87
2022/11/29 03:06:52;;;;;;;151.07;24.70;;;8.60;99.90;;;;;;5036447;28;20366;-88
2022/11/29 03:09:38;;;;;;;246.95;26.77;;;8.50;99.90;;;;;;5035908;28;20028;-86
2022/11/29 03:12:06;;;;;;;199.10;24.65;;;8.50;99.90;;;;;;5036081;28;20049;-87
2022/11/29 03:14:46;;;;;;;280.42;27.67;;;8.50;99.90;;;;;;5064376;28;20681;-87
2022/11/29 03:17:39;;;;;;;221.27;26.58;;;8.60;99.90;;;;;;5022871;28;20060;-87
2022/11/29 03:20:23;;;;;;;211.82;26.73;;;8.50;99.90;;;;;;5003415;28;20052;-87
2022/11/29 03:23:17;;;;;;;180.68;24.10;;;8.50;99.90;;;;;;5013656;28;20084;-87
2022/11/29 03:25:58;;;;;;;213.63;23.75;;;8.50;99.90;;;;;;5049249;28;20052;-87
2022/11/29 03:28:55;;;;;;;140.48;22.73;;;8.50;99.90;;;;;;5066783;28;20087;-87
2022/11/29 03:31:30;;;;;;;172.30;23.63;;;8.40;99.90;;;;;;5013360;28;20139;-87
2022/11/29 03:34:14;;;;;;;210.40;27.02;;;8.40;99.90;;;;;;5047809;28;20387;-86
2022/11/29 03:37:13;;;;;;;160.15;24.25;;;8.40;99.90;;;;;;5021998;28;20045;-87
2022/11/29 03:39:51;;;;;;;205.32;28.35;;;8.40;99.90;;;;;;5045237;28;20037;-88
2022/11/29 03:42:29;;;;;;;197.48;27.05;;;8.30;99.90;;;;;;5018135;28;20037;-86
2022/11/29 03:45:05;;;;;;;218.55;30.42;;;8.30;99.90;;;;;;5024928;28;20036;-87
2022/11/29 03:47:44;;;;;;;228.55;28.95;;;8.30;99.90;;;;;;5048748;28;20147;-87
2022/11/29 03:50:18;;;;;;;183.27;27.70;;;8.20;99.90;;;;;;5047561;28;20893;-86
2022/11/29 03:52:51;;;;;;;189.70;28.08;;;8.20;99.90;;;;;;5019719;28;20099;-87
2022/11/29 03:55:47;;;;;;;160.63;25.92;;;8.20;99.90;;;;;;5047816;28;20076;-86
2022/11/29 03:58:45;;;;;;;266.75;29.67;;;8.20;99.90;;;;;;5036909;28;20045;-86
2022/11/29 04:01:20;;;;;;;201.32;27.73;;;8.20;99.90;;;;;;5034554;28;20044;-87
2022/11/29 04:04:12;;;;;;;256.80;31.75;;;8.20;99.90;;;;;;5045435;28;20088;-86
2022/11/29 04:06:58;;;;;;;258.73;30.67;;;8.20;99.90;;;;;;5019531;28;20164;-87
2022/11/29 04:10:09;;;;;;;353.88;37.22;;;8.20;99.90;;;;;;5045330;28;20037;-87
2022/11/29 04:13:06;;;;;;;243.10;32.22;;;8.20;99.90;;;;;;5051647;28;20354;-87
2022/11/29 04:16:01;;;;;;;331.58;38.92;;;8.20;99.90;;;;;;5051750;28;20033;-87
2022/11/29 04:19:06;;;;;;;226.77;31.38;;;8.20;99.90;;;;;;5038849;28;20530;-86
2022/11/29 04:22:19;;;;;;;315.80;36.72;;;8.20;99.90;;;;;;5021133;28;20036;-87
2022/11/29 04:25:04;;;;;;;254.20;30.65;;;8.10;99.90;;;;;;5052925;28;20041;-85
2022/11/29 04:27:55;;;;;;;217.63;30.85;;;8.10;99.90;;;;;;5070306;28;20663;-85
2022/11/29 04:30:25;;;;;;;216.07;28.48;;;8.20;99.90;;;;;;5051832;28;20117;-86
2022/11/29 04:33:16;;;;;;;201.52;27.92;;;8.20;99.90;;;;;;5020716;28;20080;-84
2022/11/29 04:35:55;;;;;;;208.35;27.73;;;8.10;99.90;;;;;;5053734;28;20068;-85
2022/11/29 04:38:45;;;;;;;185.07;28.73;;;8.10;99.90;;;;;;5024112;28;20048;-84
2022/11/29 04:41:35;;;;;;;190.02;25.85;;;8.00;99.90;;;;;;5051583;28;20412;-85
2022/11/29 04:44:16;;;;;;;201.68;30.15;;;8.00;99.90;;;;;;5052147;28;20044;-85
2022/11/29 04:46:59;;;;;;;182.55;26.23;;;8.00;99.90;;;;;;5050390;28;20415;-85
2022/11/29 04:49:43;;;;;;;249.35;31.90;;;8.00;99.90;;;;;;5050737;28;20033;-86
2022/11/29 04:52:31;;;;;;;251.30;30.40;;;8.00;99.90;;;;;;5066908;28;20124;-85
2022/11/29 04:55:27;;;;;;;272.27;31.45;;;7.90;99.90;;;;;;5020464;28;20044;-84
2022/11/29 04:58:08;;;;;;;207.38;27.88;;;8.00;99.90;;;;;;5025486;28;20444;-84
2022/11/29 05:00:43;;;;;;;249.35;28.67;;;7.90;99.90;;;;;;5022742;28;20441;-86
2022/11/29 05:03:35;;;;;;;;;;;7.90;99.90;;;;;;5049472;28;20064;-85
2022/11/29 05:06:08;;;;;;;260.63;28.73;;;7.90;99.90;;;;;;5016327;28;19932;-86
2022/11/29 05:08:58;;;;;;;291.83;28.05;;;7.90;99.90;;;;;;5035815;28;20037;-86
2022/11/29 05:11:43;;;;;;;245.95;27.42;;;7.90;99.90;;;;;;5051120;28;20045;-84
2022/11/29 05:14:33;;;;;;;158.70;25.77;;;7.90;99.90;;;;;;5069912;28;20112;-85
2022/11/29 05:17:41;;;;;;;180.98;27.55;;;7.80;99.90;;;;;;5023169;28;20107;-85
2022/11/29 05:20:35;;;;;;;232.00;30.63;;;7.80;99.90;;;;;;5052026;28;20644;-85
2022/11/29 05:23:18;;;;;;;181.88;25.35;;;7.80;99.90;;;;;;5067939;28;20253;-86
2022/11/29 05:26:03;;;;;;;215.20;25.23;;;7.80;99.90;;;;;;5025312;28;20091;-86
2022/11/29 05:28:36;;;;;;;190.27;25.70;;;7.80;99.90;;;;;;5049737;28;20132;-83
2022/11/29 05:31:15;;;;;;;216.70;24.27;;;7.80;99.90;;;;;;5037224;28;20127;-85
2022/11/29 05:34:07;;;;;;;187.30;26.05;;;7.80;99.90;;;;;;5049034;28;20503;-84
2022/11/29 05:37:14;;;;;;;187.40;23.52;;;7.70;99.90;;;;;;5049225;28;20592;-85
2022/11/29 05:39:51;;;;;;;156.35;22.80;;;7.70;99.90;;;;;;4983548;28;20120;-86
2022/11/29 05:42:58;;;;;;;157.48;24.48;;;7.70;99.90;;;;;;5051346;28;20052;-86
2022/11/29 05:45:34;;;;;;;171.73;22.70;;;7.70;99.90;;;;;;5016874;28;20480;-86
2022/11/29 05:48:17;;;;;;;138.43;20.17;;;7.60;99.90;;;;;;5001116;28;20056;-85
2022/11/29 05:51:18;;;;;;;157.15;20.95;;;7.60;99.90;;;;;;5026721;28;20044;-86
2022/11/29 05:53:52;;;;;;;88.38;19.55;;;7.60;99.90;;;;;;5037905;28;20207;-85
2022/11/29 05:56:47;;;;;;;105.43;19.67;;;7.60;99.90;;;;;;5023062;28;20067;-85
2022/11/29 05:59:19;;;;;;;143.98;20.83;;;7.60;99.90;;;;;;5048156;28;20048;-86
2022/11/29 06:02:04;;;;;;;99.25;23.52;;;7.50;99.90;;;;;;5039311;28;20255;-84
2022/11/29 06:04:39;;;;;;;;;;;7.50;99.90;;;;;;5048419;28;20098;-85
2022/11/29 06:07:18;;;;;;;113.50;20.03;;;7.50;99.90;;;;;;5048934;28;20182;-86
2022/11/29 06:10:04;;;;;;;108.45;19.48;;;7.50;99.90;;;;;;5067064;28;20483;-85
2022/11/29 06:12:34;;;;;;;92.95;17.17;;;7.50;99.90;;;;;;5019655;28;20546;-85
2022/11/29 06:15:22;;;;;;;72.25;15.75;;;7.50;99.90;;;;;;5019295;28;20033;-85
2022/11/29 06:17:56;;;;;;;88.07;14.50;;;7.40;99.90;;;;;;5020769;28;20049;-85
2022/11/29 06:20:43;;;;;;;72.37;15.60;;;7.40;99.90;;;;;;5050570;28;20044;-85
2022/11/29 06:23:24;;;;;;;79.80;15.57;;;7.40;99.90;;;;;;5018421;28;20457;-85
2022/11/29 06:26:17;;;;;;;94.40;16.50;;;7.40;99.90;;;;;;5034572;28;20484;-85
2022/11/29 06:28:54;;;;;;;82.15;16.48;;;7.40;99.90;;;;;;5019505;28;20048;-85
2022/11/29 06:31:29;;;;;;;81.32;16.75;;;7.30;99.90;;;;;;5033441;28;20076;-85
2022/11/29 06:34:06;;;;;;;68.07;14.80;;;7.40;99.90;;;;;;5041926;28;20036;-85
2022/11/29 06:36:43;;;;;;;68.47;16.17;;;7.40;99.90;;;;;;5036596;28;20068;-86
2022/11/29 06:39:10;;;;;;;55.22;15.30;;;7.40;99.90;;;;;;5046168;28;20036;-85
2022/11/29 06:41:39;;;;;;;56.72;14.73;;;7.30;99.90;;;;;;5026232;28;20040;-85
2022/11/29 06:44:05;;;;;;;53.30;14.85;;;7.40;99.90;;;;;;5029097;28;20052;-85
2022/11/29 06:46:31;;;;;;;59.95;14.57;;;7.30;99.90;;;;;;5066017;28;20033;-85
2022/11/29 06:49:02;;;;;;;51.70;15.10;;;7.30;99.90;;;;;;5018624;28;20412;-85
2022/11/29 06:52:06;;;;;;;57.15;14.43;;;7.30;99.90;;;;;;5038505;28;20051;-85
2022/11/29 06:54:46;;;;;;;65.75;16.10;;;7.30;99.90;;;;;;5048256;28;20631;-85
2022/11/29 06:57:46;;;;;;;52.67;14.48;;;7.30;99.90;;;;;;5017421;28;20122;-85
2022/11/29 07:00:22;;;;;;;56.92;15.27;;;7.30;99.90;;;;;;5050396;28;20033;-85
2022/11/29 07:03:15;;;;;;;55.58;14.93;;;7.30;99.90;;;;;;5033871;28;20048;-84
2022/11/29 07:05:41;;;;;;;50.20;14.43;;;7.30;99.90;;;;;;5047561;28;20483;-85
2022/11/29 07:08:19;;;;;;;46.47;14.45;;;7.20;99.90;;;;;;5037732;28;20136;-86
2022/11/29 07:10:48;;;;;;;53.90;15.35;;;7.30;99.90;;;;;;5019585;28;20045;-85
2022/11/29 07:13:16;;;;;;;42.65;14.02;;;7.20;99.90;;;;;;5051377;28;20044;-85
2022/11/29 07:16:01;;;;;;;41.63;15.52;;;7.30;99.90;;;;;;5064453;28;20575;-85
2022/11/29 07:18:36;;;;;;;;;;;7.30;99.90;;;;;;5022783;28;20143;-85
2022/11/29 07:21:19;;;;;;;45.45;15.77;;;7.20;99.90;;;;;;5063941;28;20277;-86
2022/11/29 07:24:13;;;;;;;49.90;15.82;;;7.30;99.90;;;;;;5021682;28;20434;-86
2022/11/29 07:27:00;;;;;;;49.72;16.38;;;7.30;99.90;;;;;;5045812;28;20041;-85
2022/11/29 07:30:07;;;;;;;43.75;16.05;;;7.30;99.90;;;;;;5048889;28;20562;-86
2022/11/29 07:32:40;;;;;;;65.43;16.65;;;7.30;99.90;;;;;;5014927;28;20037;-84
2022/11/29 07:35:17;;;;;;;54.90;18.10;;;7.30;99.90;;;;;;4999757;28;20048;-86
2022/11/29 07:38:05;;;;;;;45.08;16.90;;;7.30;99.90;;;;;;5022714;28;20061;-86
2022/11/29 07:40:50;;;;;;;45.45;15.77;;;7.40;99.90;;;;;;5050632;28;20040;-85
2022/11/29 07:43:55;;;;;;;59.63;17.13;;;7.40;99.90;;;;;;5051429;28;20083;-85
2022/11/29 07:46:21;;;;;;;47.08;16.45;;;7.30;99.90;;;;;;5048156;28;20041;-85
2022/11/29 07:48:46;;;;;;;44.28;16.13;;;7.30;99.90;;;;;;5016773;28;20052;-85
2022/11/29 07:51:13;;;;;;;46.80;15.55;;;7.40;99.90;;;;;;5045116;28;20102;-85
2022/11/29 07:53:43;;;;;;;48.42;16.83;;;7.40;99.90;;;;;;5018961;28;20127;-85
2022/11/29 07:56:09;;;;;;;54.28;17.45;;;7.40;99.90;;;;;;5019217;28;20056;-84
2022/11/29 07:58:35;;;;;;;49.45;15.82;;;7.40;99.90;;;;;;5033861;28;20041;-85
2022/11/29 08:01:05;;;;;;;47.88;18.05;;;7.40;99.90;;;;;;5050806;28;20033;-85
2022/11/29 08:03:31;;;;;;;46.55;16.75;;;7.40;99.90;;;;;;5032402;28;20047;-85
2022/11/29 08:05:57;;;;;;;44.38;16.42;;;7.40;99.90;;;;;;5046325;28;20379;-85
2022/11/29 08:08:23;;;;;;;48.50;16.42;;;7.50;99.90;;;;;;5017229;28;20037;-85
2022/11/29 08:10:48;;;;;;;46.28;15.93;;;7.40;99.90;;;;;;5019385;28;20045;-84
2022/11/29 08:13:14;;;;;;;38.50;15.65;;;7.50;99.90;;;;;;5050378;28;20041;-83
2022/11/29 08:15:44;;;;;;;38.90;15.80;;;7.50;99.90;;;;;;5047422;28;20084;-85
2022/11/29 08:18:10;;;;;;;44.03;16.05;;;7.60;99.90;;;;;;5012672;28;20048;-85
2022/11/29 08:20:36;;;;;;;43.53;15.45;;;7.60;99.90;;;;;;5048547;28;20080;-84
2022/11/29 08:23:02;;;;;;;33.38;14.30;;;7.70;99.90;;;;;;5016099;28;20547;-86
2022/11/29 08:25:28;;;;;;;40.53;14.50;;;7.60;99.90;;;;;;5035486;28;20098;-86
2022/11/29 08:27:54;;;;;;;29.15;12.63;;;7.60;99.90;;;;;;5064782;28;20048;-84
2022/11/29 08:30:21;;;;;;;29.08;13.32;;;7.70;99.90;;;;;;5049085;28;20041;-85
2022/11/29 08:32:50;;;;;;;28.40;13.63;;;7.70;99.90;;;;;;5066179;28;20068;-85
2022/11/29 08:35:18;;;;;;;32.17;13.55;;;7.80;99.90;;;;;;5046183;28;20245;-85
2022/11/29 08:37:43;;;;;;;29.17;13.18;;;7.80;99.90;;;;;;5020484;28;20098;-85
2022/11/29 08:40:10;;;;;;;35.25;13.68;;;7.80;99.90;;;;;;5017584;28;20044;-85
2022/11/29 08:42:35;;;;;;;28.95;13.38;;;7.80;99.90;;;;;;5049538;28;20110;-84
2022/11/29 08:45:01;;;;;;;31.30;14.55;;;7.90;99.90;;;;;;5016545;28;20489;-85
2022/11/29 08:47:36;;;;;;;34.40;13.80;;;7.90;99.90;;;;;;5031024;28;20053;-85
2022/11/29 08:50:13;;;;;;;33.15;13.48;;;7.90;99.90;;;;;;5013817;28;20043;-85
2022/11/29 08:55:29;;;;;;;32.97;12.52;;;7.90;99.90;;;;;;5033726;28;20060;-85
2022/11/29 08:58:04;;;;;;;36.67;13.90;;;8.00;99.90;;;;;;5019284;28;20131;-85
2022/11/29 09:00:31;;;;;;;30.77;12.13;;;8.00;99.90;;;;;;5037126;28;20118;-85
2022/11/29 09:03:58;;;;;;;26.77;12.57;;;8.00;99.90;;;;;;5035983;28;20037;-85
2022/11/29 09:05:42;;;;;;;30.25;12.18;;;8.00;99.90;;;;;;5036123;28;20087;-85
2022/11/29 09:08:08;;;;;;;30.23;13.32;;;8.00;99.90;;;;;;5066646;28;20072;-86
2022/11/29 09:10:33;;;;;;;23.08;11.52;;;8.00;99.90;;;;;;5050337;28;20048;-85
2022/11/29 09:12:59;;;;;;;25.65;12.10;;;8.10;99.90;;;;;;5066601;28;20674;-85
2022/11/29 09:15:25;;;;;;;30.05;12.35;;;8.00;99.90;;;;;;5019551;28;20087;-85
2022/11/29 09:17:50;;;;;;;28.67;11.13;;;8.10;99.90;;;;;;5020872;28;20048;-85
2022/11/29 09:20:16;;;;;;;28.25;11.52;;;8.10;99.90;;;;;;5019881;28;20037;-85
2022/11/29 09:22:41;;;;;;;24.27;10.90;;;8.20;99.90;;;;;;5033946;28;20064;-85
2022/11/29 09:25:07;;;;;;;24.15;11.20;;;8.30;99.90;;;;;;5051385;28;20040;-84
2022/11/29 09:27:33;;;;;;;25.13;10.82;;;8.30;99.90;;;;;;5052872;28;20420;-85
2022/11/29 09:29:58;;;;;;;28.50;12.50;;;8.40;99.90;;;;;;5019945;28;20152;-85
2022/11/29 09:32:24;;;;;;;25.67;10.77;;;8.50;99.90;;;;;;5029429;28;20048;-85
2022/11/29 09:34:50;;;;;;;23.92;11.23;;;8.50;99.90;;;;;;5050364;28;20048;-85
2022/11/29 09:37:15;;;;;;;34.20;11.73;;;8.60;99.90;;;;;;5066390;28;20040;-85
2022/11/29 09:39:41;;;;;;;26.63;10.35;;;8.70;99.90;;;;;;5025115;28;20033;-84
2022/11/29 09:42:43;;;;;;;24.92;10.77;;;8.80;99.90;;;;;;5064513;28;20049;-85
2022/11/29 09:45:18;;;;;;;27.15;10.52;;;8.90;99.90;;;;;;5046223;28;20041;-86
2022/11/29 09:47:47;;;;;;;24.30;10.32;;;8.90;99.90;;;;;;5017655;28;20644;-86
2022/11/29 09:50:20;;;;;;;27.35;10.70;;;9.00;99.90;;;;;;5023416;28;20173;-86
2022/11/29 09:53:05;;;;;;;25.30;10.23;;;9.10;99.90;;;;;;5047664;28;20053;-84
2022/11/29 09:56:03;;;;;;;25.58;9.45;;;9.00;99.90;;;;;;5021076;28;20604;-85
2022/11/29 09:58:33;;;;;;;22.33;9.30;;;9.10;99.90;;;;;;5006601;28;20060;-85
2022/11/29 10:01:06;;;;;;;19.63;10.20;;;9.20;99.90;;;;;;5037715;28;20040;-85
2022/11/29 10:03:50;;;;;;;17.33;8.65;;;9.20;99.90;;;;;;5049655;28;20040;-85
2022/11/29 10:06:27;;;;;;;19.60;9.25;;;9.20;99.90;;;;;;5047040;28;20063;-85
2022/11/29 10:09:15;;;;;;;22.45;9.65;;;9.30;99.90;;;;;;5048335;28;20454;-85
2022/11/29 10:11:47;;;;;;;21.77;9.38;;;9.30;99.90;;;;;;5049100;28;20692;-85
2022/11/29 10:14:21;;;;;;;21.90;8.95;;;9.40;99.90;;;;;;5065582;28;20518;-85
2022/11/29 10:17:15;;;;;;;18.48;8.52;;;9.40;99.90;;;;;;5033753;28;20400;-86
2022/11/29 10:19:54;;;;;;;20.65;8.18;;;9.30;99.90;;;;;;5032442;28;20484;-85
2022/11/29 10:22:58;;;;;;;23.17;9.32;;;9.30;99.90;;;;;;5018994;28;20041;-85
2022/11/29 10:25:34;;;;;;;23.92;9.65;;;9.50;99.90;;;;;;5035082;28;20049;-85
2022/11/29 10:28:02;;;;;;;23.30;9.18;;;9.40;99.90;;;;;;5018611;28;20409;-85
2022/11/29 10:30:30;;;;;;;24.73;8.77;;;9.50;99.90;;;;;;5018027;28;20484;-83
2022/11/29 10:32:59;;;;;;;26.10;8.77;;;9.60;99.90;;;;;;5035094;28;20489;-85
2022/11/29 10:35:25;;;;;;;23.50;8.98;;;9.50;99.90;;;;;;5036752;28;20041;-86
2022/11/29 10:37:55;;;;;;;25.15;8.45;;;9.60;99.90;;;;;;5062240;28;20484;-85
2022/11/29 10:40:28;;;;;;;23.58;9.13;;;9.60;99.90;;;;;;5034378;28;20484;-85
2022/11/29 10:42:57;;;;;;;31.30;10.20;;;9.50;99.90;;;;;;5016010;28;20037;-85
2022/11/29 10:45:28;;;;;;;19.05;8.93;;;9.50;99.90;;;;;;5047719;28;20067;-85
2022/11/29 10:48:21;;;;;;;19.38;8.50;;;9.50;99.90;;;;;;5035302;28;20465;-85
2022/11/29 10:50:49;;;;;;;21.55;8.63;;;9.60;99.90;;;;;;5015811;28;20051;-85
2022/11/29 10:53:27;;;;;;;25.77;8.70;;;9.60;99.90;;;;;;5033744;28;20136;-85
2022/11/29 10:56:12;;;;;;;19.17;9.02;;;9.50;99.90;;;;;;5033757;28;20741;-85
2022/11/29 10:58:57;;;;;;;23.63;8.45;;;9.60;99.90;;;;;;5016316;28;20496;-85
2022/11/29 11:01:23;;;;;;;18.93;8.33;;;9.50;99.90;;;;;;5014809;28;20705;-85
2022/11/29 11:03:50;;;;;;;21.83;8.63;;;9.50;99.90;;;;;;5016699;28;20048;-85
2022/11/29 11:06:17;;;;;;;20.75;9.45;;;9.60;99.90;;;;;;5049678;28;20059;-86
2022/11/29 11:08:48;;;;;;;29.20;9.20;;;9.60;99.90;;;;;;5033961;28;20040;-84
2022/11/29 11:11:31;;;;;;;24.52;9.10;;;9.50;99.90;;;;;;5031966;28;20063;-86
2022/11/29 11:13:59;;;;;;;24.73;8.95;;;9.70;99.90;;;;;;5033853;28;20115;-86
2022/11/29 11:16:25;;;;;;;22.42;9.32;;;9.70;99.90;;;;;;5016367;28;20478;-85
2022/11/29 11:18:51;;;;;;;25.67;10.20;;;9.80;99.90;;;;;;5017509;28;20487;-84
2022/11/29 11:21:20;;;;;;;20.67;10.02;;;9.80;99.90;;;;;;5034927;28;20048;-85
2022/11/29 11:23:54;;;;;;;20.20;10.57;;;9.80;99.90;;;;;;5020181;28;20144;-84
2022/11/29 11:26:21;;;;;;;;;;;9.90;99.90;;;;;;5018075;28;20033;-85
2022/11/29 11:28:51;;;;;;;21.05;9.90;;;10.00;99.90;;;;;;5064916;28;20283;-85
2022/11/29 11:31:30;;;;;;;21.17;9.98;;;9.90;99.90;;;;;;5030839;28;20077;-85
2022/11/29 11:33:55;;;;;;;20.05;10.00;;;10.10;99.90;;;;;;5016438;28;20056;-85
2022/11/29 11:36:24;;;;;;;20.67;10.27;;;10.20;99.90;;;;;;5018084;28;20033;-85
2022/11/29 11:38:54;;;;;;;20.33;9.95;;;10.20;99.90;;;;;;5048918;28;20507;-86
2022/11/29 11:44:34;;;;;;;25.58;10.77;;;10.10;99.90;;;;;;5067014;28;20051;-85
2022/11/29 11:47:03;;;;;;;18.88;10.80;;;10.10;99.90;;;;;;5023587;28;20033;-85
2022/11/29 11:49:45;;;;;;;22.40;10.20;;;10.10;99.90;;;;;;5020602;28;20098;-85
2022/11/29 11:52:27;;;;;;;20.58;10.98;;;10.10;99.90;;;;;;5050124;28;20052;-85
2022/11/29 11:55:03;;;;;;;19.17;10.40;;;10.10;99.90;;;;;;5029006;28;20063;-85
2022/11/29 11:57:29;;;;;;;16.80;10.20;;;10.00;99.90;;;;;;5013732;28;20052;-85
2022/11/29 11:59:58;;;;;;;16.20;9.02;;;9.90;99.90;;;;;;5019360;28;20363;-84
2022/11/29 12:02:47;;;;;;;16.65;9.13;;;9.90;99.90;;;;;;5069413;28;20068;-85
2022/11/29 12:05:17;;;;;;;14.38;9.98;;;9.80;99.90;;;;;;5017176;28;20044;-85
2022/11/29 12:07:53;;;;;;;13.13;9.57;;;9.80;99.90;;;;;;5065354;28;20272;-85
2022/11/29 12:10:25;;;;;;;12.50;8.60;;;9.80;99.90;;;;;;5033274;28;20088;-85
2022/11/29 12:12:53;;;;;;;14.82;8.85;;;9.80;99.90;;;;;;5033612;28;20065;-85
2022/11/29 12:15:34;;;;;;;12.98;9.02;;;9.80;99.90;;;;;;5063476;28;20049;-84
2022/11/29 12:18:13;;;;;;;12.80;8.50;;;9.70;99.90;;;;;;5062899;28;20037;-85
2022/11/29 12:21:16;;;;;;;13.43;8.68;;;9.70;99.90;;;;;;5050617;28;20048;-85
2022/11/29 12:24:11;;;;;;;11.65;7.55;;;9.60;99.90;;;;;;5016962;28;20106;-85
2022/11/29 12:26:39;;;;;;;13.00;7.60;;;9.50;99.90;;;;;;5021631;28;20041;-84
2022/11/29 12:29:14;;;;;;;12.23;7.57;;;9.50;99.90;;;;;;5018237;28;20965;-85
2022/11/29 12:32:07;;;;;;;10.65;7.07;;;9.50;99.90;;;;;;5021049;28;20036;-85
2022/11/29 12:34:33;;;;;;;12.43;7.07;;;9.50;99.90;;;;;;5038072;28;20135;-85
2022/11/29 12:37:03;;;;;;;9.25;6.75;;;9.50;99.90;;;;;;5069544;28;20345;-85
2022/11/29 12:40:03;;;;;;;12.38;7.15;;;9.50;99.90;;;;;;5021076;28;20045;-85
2022/11/29 12:42:53;;;;;;;12.25;7.38;;;9.40;99.90;;;;;;5037470;28;20061;-85
2022/11/29 12:45:23;;;;;;;13.68;7.63;;;9.40;99.90;;;;;;5020315;28;20811;-85
2022/11/29 12:48:01;;;;;;;9.88;6.85;;;9.40;99.90;;;;;;5035661;28;20442;-85
2022/11/29 12:51:07;;;;;;;12.32;6.55;;;9.40;99.90;;;;;;5052229;28;20557;-85
2022/11/29 12:53:36;;;;;;;12.75;9.13;;;9.30;99.90;;;;;;5018335;28;20047;-85
2022/11/29 12:56:16;;;;;;;11.05;8.25;;;9.10;99.90;;;;;;5020810;28;20659;-85
2022/11/29 12:59:11;;;;;;;12.75;9.02;;;9.10;99.90;;;;;;5052317;28;20041;-85
2022/11/29 13:01:54;;;;;;;12.85;8.43;;;9.10;99.90;;;;;;5022418;28;20040;-85
2022/11/29 13:04:47;;;;;;;10.30;8.05;;;9.10;99.90;;;;;;5022779;28;20128;-84
2022/11/29 13:07:37;;;;;;;11.85;9.50;;;9.00;99.90;;;;;;5022510;28;20112;-85
2022/11/29 13:10:41;;;;;;;12.65;9.27;;;9.00;99.90;;;;;;5020630;28;20083;-85
2022/11/29 13:13:23;;;;;;;12.25;9.40;;;9.00;99.90;;;;;;5015939;28;20268;-85
2022/11/29 13:15:53;;;;;;;11.27;10.07;;;9.00;99.90;;;;;;5021673;28;20037;-86
2022/11/29 13:18:34;;;;;;;13.85;10.77;;;8.90;99.90;;;;;;5037740;28;20155;-87
2022/11/29 13:21:15;;;;;;;12.35;10.20;;;8.90;99.90;;;;;;5022097;28;20392;-88
2022/11/29 13:23:55;;;;;;;13.40;9.90;;;8.90;99.90;;;;;;5037231;28;20123;-87
2022/11/29 13:26:23;;;;;;;12.38;9.75;;;8.90;99.90;;;;;;5038299;28;20076;-87
2022/11/29 13:28:50;;;;;;;12.95;8.95;;;8.80;99.90;;;;;;5037749;28;20032;-87
2022/11/29 13:31:20;;;;;;;14.15;9.60;;;8.80;99.90;;;;;;5022169;28;20041;-88